Архив погоды в Вайда-Губе

Метеограмма Вайда-Губа
Среда, 19 Июня
Время местн. Темп Ветер Видим Явления Облачность нижн/средн/верх Атм. давл. Влжн Точка росы ВНГО R Сост. почвы Tg s
Напр Скр Прв ур.ст ур.м изм
15:00 +6.4° С-В 3 4 более 50 км - преимущественно облачно 757 757 +0.5 70% +1.3° 600 м - - - -
12:00 +6° С-В 4 6 50 км - преимущественно облачно 756 757 +0.8 73% +1.5° 600 м - - - -
09:00 +5.3° В 5 6 50 км - облачно 756 756 -0.2 77% +1.6° 600 м 0 Сухая (без трещин) - -
06:00 +4.8° В 6 7 50 км - облачно 756 756 -0.4 80% +1.6° 600 м - - - -
03:00 +4.6° В,Ю-В 5 6 50 км - облачно 756 757 -0.7 83% +2° 600 м - - - -
00:00 +4.6° В 5 6 50 км - переменная облачность 757 758 -0.8 81% +1.6° 600 м - - - -
Вторник, 18 Июня
Время местн. Темп Ветер Видим Явления Облачность нижн/средн/верх Атм. давл. Влжн Точка росы ВНГО R Сост. почвы Tg s
Напр Скр Прв ур.ст ур.м изм
21:00 +4.7° В 4 6 50 км - облачно с прояснениями 758 758 -0.6 79% +1.4° 600 м 0 - - -
18:00 +5.7° С,С-В 3 4 50 км - переменная облачность 758 759 -0.3 73% +1.2° 600 м - - - -
15:00 +5.8° С 3 5 50 км - преимущественно облачно 759 759 +0.2 70% +0.7° 600 м - - - -
12:00 +5.5° С 4 5 50 км - преимущественно облачно 758 759 +0.4 73% +1° 600 м - - - -
09:00 +5.4° С,С-З 5 6 50 км ливневый дождь облачно с прояснениями 758 759 +0.4 75% +1.3° 600 м 0.1 Влажная (без луж) - -
06:00 +5.2° С-З 5 7 более 50 км ливневый дождь облачно с прояснениями 758 758 -0.1 74% +0.9° 600 м - - - -
03:00 +4.1° С-З 4 6 50 км небо без изменений {ливневые осадки} преимущественно облачно 758 758 0 89% +2.4° 600 м - - - -
00:00 +4.4° С-З 4 6 50 км - преимущественно облачно 758 758 +0.3 86% +2.3° 600 м - - - -
Понедельник, 17 Июня
Время местн. Темп Ветер Видим Явления Облачность нижн/средн/верх Атм. давл. Влжн Точка росы ВНГО R Сост. почвы Tg s
Напр Скр Прв ур.ст ур.м изм
21:00 +5.3° С,С-З 8 9 50 км - преимущественно облачно 757 758 +0.2 79% +1.9° 600 м 0 - - -
18:00 +6.4° С,С-З 7 12 более 50 км - облачно 757 758 +0.2 77% +2.7° 600 м - - - -
15:00 +7.3° С,С-З 6 8 50 км небо без изменений {ливневые осадки} облачно с прояснениями 757 758 +0.2 71% +2.4° 600 м - - - -
12:00 +7.1° С,С-З 6 8 50 км небо без изменений {ливневые осадки} облачно с прояснениями 757 758 -0.1 75% +3° 600 м - - - -
09:00 +6° С-З 5 7 50 км ливневый дождь преимущественно облачно 757 758 0 81% +3° 600 м 0.1 Влажная (без луж) - -
06:00 +5.9° З,С-З 5 8 50 км - облачно 757 758 -0.6 74% +1.6° 600 м - - - -
03:00 +5.4° З,С-З 5 8 50 км - облачно 758 758 -0.2 77% +1.7° 600 м - - - -
00:00 +5.5° С-З 6 10 50 км - преимущественно облачно 758 759 -0.4 80% +2.3° 600 м - - - -
Воскресенье, 16 Июня
Время местн. Темп Ветер Видим Явления Облачность нижн/средн/верх Атм. давл. Влжн Точка росы ВНГО R Сост. почвы Tg s
Напр Скр Прв ур.ст ур.м изм
21:00 +6.1° С-З 6 8 50 км - преимущественно облачно 758 759 -0.2 80% +2.9° 600 м 0 - - -
18:00 +7.2° С-З 5 8 50 км - облачно с прояснениями 758 759 +0.5 76% +3.2° 600 м - - - -
15:00 +7.8° С-З 10 14 50 км - облачно с прояснениями 758 759 -0.2 75% +3.6° 600 м - - - -
12:00 +7.5° З,С-З 6 11 50 км - преимущественно облачно 758 759 +0.5 75% +3.4° 600 м - - - -